sensor_id;sensor_type;location;lat;lon;timestamp;pressure;altitude;pressure_sealevel;temperature;humidity
64967;BME280;51710;38.732;-121.358;2023-02-03T00:01:23;101923.91;;;13.28;57.18
64967;BME280;51710;38.732;-121.358;2023-02-03T00:03:49;101929.50;;;13.25;57.19
64967;BME280;51710;38.732;-121.358;2023-02-03T00:06:15;101920.66;;;13.25;56.84
64967;BME280;51710;38.732;-121.358;2023-02-03T00:08:46;101917.13;;;13.24;56.69
64967;BME280;51710;38.732;-121.358;2023-02-03T00:11:12;101907.56;;;13.22;56.55
64967;BME280;51710;38.732;-121.358;2023-02-03T00:13:39;101912.50;;;13.17;56.00
64967;BME280;51710;38.732;-121.358;2023-02-03T00:16:05;101916.59;;;13.11;55.88
64967;BME280;51710;38.732;-121.358;2023-02-03T00:18:32;101913.81;;;13.03;56.36
64967;BME280;51710;38.732;-121.358;2023-02-03T00:20:59;101913.38;;;12.98;56.78
64967;BME280;51710;38.732;-121.358;2023-02-03T00:23:25;101907.31;;;12.96;57.05
64967;BME280;51710;38.732;-121.358;2023-02-03T00:25:54;101912.66;;;12.96;56.83
64967;BME280;51710;38.732;-121.358;2023-02-03T00:28:21;101906.31;;;12.97;56.66
64967;BME280;51710;38.732;-121.358;2023-02-03T00:30:47;101909.97;;;12.96;56.23
64967;BME280;51710;38.732;-121.358;2023-02-03T00:33:14;101903.94;;;12.94;56.38
64967;BME280;51710;38.732;-121.358;2023-02-03T00:35:40;101906.75;;;12.93;56.45
64967;BME280;51710;38.732;-121.358;2023-02-03T00:38:06;101893.53;;;12.91;56.48
64967;BME280;51710;38.732;-121.358;2023-02-03T00:40:33;101906.75;;;12.93;56.87
64967;BME280;51710;38.732;-121.358;2023-02-03T00:42:59;101905.63;;;12.95;56.90
64967;BME280;51710;38.732;-121.358;2023-02-03T00:45:25;101899.28;;;12.96;56.91
64967;BME280;51710;38.732;-121.358;2023-02-03T00:47:52;101898.28;;;12.97;57.03
64967;BME280;51710;38.732;-121.358;2023-02-03T00:50:18;101887.88;;;12.94;57.18
64967;BME280;51710;38.732;-121.358;2023-02-03T00:52:45;101889.03;;;12.92;56.75
64967;BME280;51710;38.732;-121.358;2023-02-03T00:55:11;101889.16;;;12.90;56.73
64967;BME280;51710;38.732;-121.358;2023-02-03T00:57:37;101883.13;;;12.88;56.92
64967;BME280;51710;38.732;-121.358;2023-02-03T01:00:04;101905.94;;;12.83;56.91
64967;BME280;51710;38.732;-121.358;2023-02-03T01:02:31;101913.81;;;12.75;57.50
64967;BME280;51710;38.732;-121.358;2023-02-03T01:04:57;101903.13;;;12.65;57.91
64967;BME280;51710;38.732;-121.358;2023-02-03T01:07:23;101902.28;;;12.55;58.39
64967;BME280;51710;38.732;-121.358;2023-02-03T01:09:50;101914.94;;;12.43;58.76
64967;BME280;51710;38.732;-121.358;2023-02-03T01:12:16;101922.53;;;12.29;59.02
64967;BME280;51710;38.732;-121.358;2023-02-03T01:14:42;101922.94;;;12.15;59.65
64967;BME280;51710;38.732;-121.358;2023-02-03T01:17:09;101925.00;;;12.02;59.85
64967;BME280;51710;38.732;-121.358;2023-02-03T01:19:35;101938.72;;;11.88;60.60
64967;BME280;51710;38.732;-121.358;2023-02-03T01:22:01;101932.38;;;11.79;60.83
64967;BME280;51710;38.732;-121.358;2023-02-03T01:24:29;101937.28;;;11.74;60.72
64967;BME280;51710;38.732;-121.358;2023-02-03T01:26:55;101932.47;;;11.68;60.52
64967;BME280;51710;38.732;-121.358;2023-02-03T01:29:23;101942.22;;;11.58;60.32
64967;BME280;51710;38.732;-121.358;2023-02-03T01:31:49;101939.66;;;11.47;60.61
64967;BME280;51710;38.732;-121.358;2023-02-03T01:34:16;101953.94;;;11.37;60.94
64967;BME280;51710;38.732;-121.358;2023-02-03T01:36:43;101970.94;;;11.24;61.36
64967;BME280;51710;38.732;-121.358;2023-02-03T01:39:11;101976.22;;;11.15;61.70
64967;BME280;51710;38.732;-121.358;2023-02-03T01:41:38;101969.00;;;11.06;62.32
64967;BME280;51710;38.732;-121.358;2023-02-03T01:46:59;101985.00;;;10.85;62.69
64967;BME280;51710;38.732;-121.358;2023-02-03T01:49:34;101975.09;;;10.76;63.22
64967;BME280;51710;38.732;-121.358;2023-02-03T01:52:03;101982.63;;;10.71;63.53
64967;BME280;51710;38.732;-121.358;2023-02-03T01:54:32;101987.63;;;10.65;63.05
64967;BME280;51710;38.732;-121.358;2023-02-03T01:57:05;101974.66;;;10.60;63.46
64967;BME280;51710;38.732;-121.358;2023-02-03T01:59:33;101973.25;;;10.56;63.85
64967;BME280;51710;38.732;-121.358;2023-02-03T02:02:02;101978.09;;;10.51;64.11
64967;BME280;51710;38.732;-121.358;2023-02-03T02:04:38;101975.66;;;10.48;63.86
64967;BME280;51710;38.732;-121.358;2023-02-03T02:07:09;101981.00;;;10.48;64.18
64967;BME280;51710;38.732;-121.358;2023-02-03T02:09:36;101976.06;;;10.44;64.29
64967;BME280;51710;38.732;-121.358;2023-02-03T02:12:02;101993.97;;;10.42;64.23
64967;BME280;51710;38.732;-121.358;2023-02-03T02:14:29;101989.72;;;10.39;64.95
64967;BME280;51710;38.732;-121.358;2023-02-03T02:23:23;101994.59;;;10.34;64.89
64967;BME280;51710;38.732;-121.358;2023-02-03T02:32:17;101996.09;;;10.16;65.09
64967;BME280;51710;38.732;-121.358;2023-02-03T02:40:22;102004.06;;;9.83;65.77
64967;BME280;51710;38.732;-121.358;2023-02-03T02:43:12;102003.47;;;9.79;65.52
64967;BME280;51710;38.732;-121.358;2023-02-03T02:45:58;102010.59;;;9.79;66.10
64967;BME280;51710;38.732;-121.358;2023-02-03T02:48:35;101998.13;;;9.79;65.79
64967;BME280;51710;38.732;-121.358;2023-02-03T02:51:07;102014.09;;;9.79;66.10
64967;BME280;51710;38.732;-121.358;2023-02-03T02:53:39;102011.56;;;9.78;66.16
64967;BME280;51710;38.732;-121.358;2023-02-03T02:56:09;102002.00;;;9.75;66.37
64967;BME280;51710;38.732;-121.358;2023-02-03T02:58:39;102002.84;;;9.76;66.29
64967;BME280;51710;38.732;-121.358;2023-02-03T03:01:07;101994.16;;;9.74;66.49
64967;BME280;51710;38.732;-121.358;2023-02-03T03:03:34;101987.63;;;9.67;66.49
64967;BME280;51710;38.732;-121.358;2023-02-03T03:06:08;101989.44;;;9.55;67.13
64967;BME280;51710;38.732;-121.358;2023-02-03T03:08:52;101987.00;;;9.41;67.09
64967;BME280;51710;38.732;-121.358;2023-02-03T03:11:20;101985.41;;;9.39;67.01
64967;BME280;51710;38.732;-121.358;2023-02-03T03:13:51;101975.34;;;9.31;67.48
64967;BME280;51710;38.732;-121.358;2023-02-03T03:16:22;101979.06;;;9.18;67.81
64967;BME280;51710;38.732;-121.358;2023-02-03T03:18:59;101963.84;;;9.08;68.08
64967;BME280;51710;38.732;-121.358;2023-02-03T03:21:35;101962.88;;;9.09;68.13
64967;BME280;51710;38.732;-121.358;2023-02-03T03:24:09;101957.44;;;9.11;68.52
64967;BME280;51710;38.732;-121.358;2023-02-03T03:29:20;101949.97;;;9.16;68.16
64967;BME280;51710;38.732;-121.358;2023-02-03T03:31:48;101956.75;;;9.20;67.81
64967;BME280;51710;38.732;-121.358;2023-02-03T03:34:15;101946.25;;;9.30;68.30
64967;BME280;51710;38.732;-121.358;2023-02-03T03:44:51;101912.19;;;9.57;67.80
64967;BME280;51710;38.732;-121.358;2023-02-03T03:47:54;101907.22;;;9.63;68.01
64967;BME280;51710;38.732;-121.358;2023-02-03T03:50:28;101913.63;;;9.72;67.96
64967;BME280;51710;38.732;-121.358;2023-02-03T03:52:57;101905.75;;;9.81;67.72
64967;BME280;51710;38.732;-121.358;2023-02-03T03:55:28;101895.47;;;9.88;67.49
64967;BME280;51710;38.732;-121.358;2023-02-03T03:58:04;101891.34;;;9.95;67.51
64967;BME280;51710;38.732;-121.358;2023-02-03T04:00:34;101882.84;;;10.01;67.55
64967;BME280;51710;38.732;-121.358;2023-02-03T04:03:15;101882.34;;;10.07;67.38
64967;BME280;51710;38.732;-121.358;2023-02-03T04:05:42;101877.53;;;10.12;66.88
64967;BME280;51710;38.732;-121.358;2023-02-03T04:08:09;101884.31;;;10.16;67.18
64967;BME280;51710;38.732;-121.358;2023-02-03T04:10:38;101891.03;;;10.20;67.07
64967;BME280;51710;38.732;-121.358;2023-02-03T04:13:06;101889.81;;;10.24;67.13
64967;BME280;51710;38.732;-121.358;2023-02-03T04:15:33;101893.09;;;10.28;66.86
64967;BME280;51710;38.732;-121.358;2023-02-03T04:18:00;101891.16;;;10.30;66.28
64967;BME280;51710;38.732;-121.358;2023-02-03T04:20:28;101892.94;;;10.29;66.44
64967;BME280;51710;38.732;-121.358;2023-02-03T04:22:55;101892.81;;;10.31;66.00
64967;BME280;51710;38.732;-121.358;2023-02-03T04:25:22;101887.50;;;10.31;66.23
64967;BME280;51710;38.732;-121.358;2023-02-03T04:27:48;101886.69;;;10.30;66.20
64967;BME280;51710;38.732;-121.358;2023-02-03T04:30:14;101873.38;;;10.30;66.16
64967;BME280;51710;38.732;-121.358;2023-02-03T04:32:44;101871.66;;;10.29;65.88
64967;BME280;51710;38.732;-121.358;2023-02-03T04:35:11;101881.34;;;10.30;65.90
64967;BME280;51710;38.732;-121.358;2023-02-03T04:37:37;101866.19;;;10.31;66.03
64967;BME280;51710;38.732;-121.358;2023-02-03T04:40:04;101877.72;;;10.31;65.83
64967;BME280;51710;38.732;-121.358;2023-02-03T04:42:31;101878.81;;;10.29;65.61
64967;BME280;51710;38.732;-121.358;2023-02-03T04:44:57;101876.25;;;10.27;65.89
64967;BME280;51710;38.732;-121.358;2023-02-03T04:47:24;101878.91;;;10.27;65.50
64967;BME280;51710;38.732;-121.358;2023-02-03T04:49:50;101877.25;;;10.26;65.25
64967;BME280;51710;38.732;-121.358;2023-02-03T04:52:16;101877.38;;;10.25;65.59
64967;BME280;51710;38.732;-121.358;2023-02-03T04:54:42;101883.78;;;10.22;65.94
64967;BME280;51710;38.732;-121.358;2023-02-03T04:57:09;101887.69;;;10.18;65.47
64967;BME280;51710;38.732;-121.358;2023-02-03T04:59:35;101871.13;;;10.14;65.90
64967;BME280;51710;38.732;-121.358;2023-02-03T05:02:02;101868.81;;;10.10;65.84
64967;BME280;51710;38.732;-121.358;2023-02-03T05:04:29;101870.72;;;10.08;65.88
64967;BME280;51710;38.732;-121.358;2023-02-03T05:06:56;101861.31;;;10.04;65.91
64967;BME280;51710;38.732;-121.358;2023-02-03T05:09:23;101873.78;;;10.03;65.88
64967;BME280;51710;38.732;-121.358;2023-02-03T05:11:50;101884.56;;;10.02;66.27
64967;BME280;51710;38.732;-121.358;2023-02-03T05:14:16;101877.38;;;10.02;66.45
64967;BME280;51710;38.732;-121.358;2023-02-03T05:16:42;101875.72;;;10.01;66.56
64967;BME280;51710;38.732;-121.358;2023-02-03T05:19:09;101862.53;;;10.00;66.11
64967;BME280;51710;38.732;-121.358;2023-02-03T05:21:35;101857.22;;;10.00;66.48
64967;BME280;51710;38.732;-121.358;2023-02-03T05:24:02;101854.56;;;10.00;66.09
64967;BME280;51710;38.732;-121.358;2023-02-03T05:26:34;101857.22;;;10.00;66.32
64967;BME280;51710;38.732;-121.358;2023-02-03T05:29:01;101847.31;;;10.02;66.04
64967;BME280;51710;38.732;-121.358;2023-02-03T05:31:28;101846.31;;;10.03;66.21
64967;BME280;51710;38.732;-121.358;2023-02-03T05:33:54;101851.63;;;10.03;66.35
64967;BME280;51710;38.732;-121.358;2023-02-03T05:36:21;101861.44;;;10.02;66.17
64967;BME280;51710;38.732;-121.358;2023-02-03T05:38:47;101855.28;;;10.02;66.09
64967;BME280;51710;38.732;-121.358;2023-02-03T05:41:14;101855.28;;;10.02;66.27
64967;BME280;51710;38.732;-121.358;2023-02-03T05:43:59;101855.28;;;10.02;65.96
64967;BME280;51710;38.732;-121.358;2023-02-03T05:46:25;101853.56;;;10.01;66.11
64967;BME280;51710;38.732;-121.358;2023-02-03T05:48:52;101854.44;;;10.01;66.40
64967;BME280;51710;38.732;-121.358;2023-02-03T05:51:18;101845.59;;;10.01;66.22
64967;BME280;51710;38.732;-121.358;2023-02-03T05:53:44;101849.81;;;10.03;65.96
64967;BME280;51710;38.732;-121.358;2023-02-03T05:56:11;101847.91;;;9.94;65.85
64967;BME280;51710;38.732;-121.358;2023-02-03T05:58:37;101842.53;;;9.85;66.04
64967;BME280;51710;38.732;-121.358;2023-02-03T06:01:03;101844.69;;;9.80;66.66
64967;BME280;51710;38.732;-121.358;2023-02-03T06:03:30;101838.16;;;9.73;66.22
64967;BME280;51710;38.732;-121.358;2023-02-03T06:05:56;101834.34;;;9.55;66.43
64967;BME280;51710;38.732;-121.358;2023-02-03T06:08:23;101830.16;;;9.30;66.65
64967;BME280;51710;38.732;-121.358;2023-02-03T06:11:02;101820.84;;;9.13;67.07
64967;BME280;51710;38.732;-121.358;2023-02-03T06:13:28;101836.06;;;9.12;67.48
64967;BME280;51710;38.732;-121.358;2023-02-03T06:15:55;101834.13;;;9.13;67.57
64967;BME280;51710;38.732;-121.358;2023-02-03T06:18:22;101834.63;;;9.19;67.62
64967;BME280;51710;38.732;-121.358;2023-02-03T06:20:49;101831.34;;;9.26;67.35
64967;BME280;51710;38.732;-121.358;2023-02-03T06:23:16;101838.72;;;9.23;67.32
64967;BME280;51710;38.732;-121.358;2023-02-03T06:25:47;101855.84;;;8.96;67.71
64967;BME280;51710;38.732;-121.358;2023-02-03T06:28:14;101853.41;;;8.71;67.87
64967;BME280;51710;38.732;-121.358;2023-02-03T06:30:41;101848.81;;;8.62;68.59
64967;BME280;51710;38.732;-121.358;2023-02-03T06:33:08;101844.44;;;8.61;68.92
64967;BME280;51710;38.732;-121.358;2023-02-03T06:35:34;101852.19;;;8.64;68.79
64967;BME280;51710;38.732;-121.358;2023-02-03T06:38:01;101855.47;;;8.68;69.01
64967;BME280;51710;38.732;-121.358;2023-02-03T06:40:27;101865.97;;;8.69;68.82
64967;BME280;51710;38.732;-121.358;2023-02-03T06:42:53;101870.03;;;8.62;68.94
64967;BME280;51710;38.732;-121.358;2023-02-03T06:45:20;101874.56;;;8.49;69.20
64967;BME280;51710;38.732;-121.358;2023-02-03T06:47:46;101882.63;;;8.37;68.94
64967;BME280;51710;38.732;-121.358;2023-02-03T06:50:14;101877.41;;;8.35;69.58
64967;BME280;51710;38.732;-121.358;2023-02-03T06:52:41;101876.69;;;8.33;69.91
64967;BME280;51710;38.732;-121.358;2023-02-03T06:55:08;101885.09;;;8.27;69.69
64967;BME280;51710;38.732;-121.358;2023-02-03T06:57:35;101898.97;;;8.07;69.83
64967;BME280;51710;38.732;-121.358;2023-02-03T07:00:08;101897.13;;;7.84;70.44
64967;BME280;51710;38.732;-121.358;2023-02-03T07:02:34;101878.06;;;7.79;70.51
64967;BME280;51710;38.732;-121.358;2023-02-03T07:05:01;101879.63;;;7.81;70.92
64967;BME280;51710;38.732;-121.358;2023-02-03T07:07:27;101874.00;;;7.86;70.91
64967;BME280;51710;38.732;-121.358;2023-02-03T07:09:55;101867.22;;;7.82;70.77
64967;BME280;51710;38.732;-121.358;2023-02-03T07:12:21;101863.22;;;7.76;71.07
64967;BME280;51710;38.732;-121.358;2023-02-03T07:14:47;101869.59;;;7.74;71.18
64967;BME280;51710;38.732;-121.358;2023-02-03T07:17:14;101875.09;;;7.71;70.67
64967;BME280;51710;38.732;-121.358;2023-02-03T07:19:40;101867.28;;;7.57;71.19
64967;BME280;51710;38.732;-121.358;2023-02-03T07:22:09;101871.34;;;7.50;71.33
64967;BME280;51710;38.732;-121.358;2023-02-03T07:24:35;101871.13;;;7.53;71.33
64967;BME280;51710;38.732;-121.358;2023-02-03T07:27:02;101865.63;;;7.56;71.72
64967;BME280;51710;38.732;-121.358;2023-02-03T07:29:28;101872.59;;;7.57;71.45
64967;BME280;51710;38.732;-121.358;2023-02-03T07:31:55;101880.25;;;7.49;71.80
64967;BME280;51710;38.732;-121.358;2023-02-03T07:34:22;101880.50;;;7.33;71.54
64967;BME280;51710;38.732;-121.358;2023-02-03T07:36:48;101878.81;;;7.20;72.07
64967;BME280;51710;38.732;-121.358;2023-02-03T07:39:14;101871.41;;;7.12;72.60
64967;BME280;51710;38.732;-121.358;2023-02-03T07:41:41;101877.09;;;7.06;72.49
64967;BME280;51710;38.732;-121.358;2023-02-03T07:44:07;101883.69;;;7.01;72.61
64967;BME280;51710;38.732;-121.358;2023-02-03T07:46:34;101885.38;;;7.02;72.83
64967;BME280;51710;38.732;-121.358;2023-02-03T07:49:04;101884.75;;;6.98;72.72
64967;BME280;51710;38.732;-121.358;2023-02-03T07:51:31;101883.25;;;6.94;72.82
64967;BME280;51710;38.732;-121.358;2023-02-03T07:53:57;101886.00;;;6.93;73.13
64967;BME280;51710;38.732;-121.358;2023-02-03T07:56:23;101889.63;;;6.92;72.49
64967;BME280;51710;38.732;-121.358;2023-02-03T07:58:53;101886.22;;;6.90;72.97
64967;BME280;51710;38.732;-121.358;2023-02-03T08:01:19;101891.53;;;6.90;73.43
64967;BME280;51710;38.732;-121.358;2023-02-03T08:03:45;101884.94;;;6.82;73.41
64967;BME280;51710;38.732;-121.358;2023-02-03T08:06:12;101889.94;;;6.74;73.11
64967;BME280;51710;38.732;-121.358;2023-02-03T08:08:38;101892.97;;;6.68;73.54
64967;BME280;51710;38.732;-121.358;2023-02-03T08:11:06;101884.63;;;6.62;73.14
64967;BME280;51710;38.732;-121.358;2023-02-03T08:13:32;101888.53;;;6.56;73.57
64967;BME280;51710;38.732;-121.358;2023-02-03T08:15:59;101888.91;;;6.50;73.31
64967;BME280;51710;38.732;-121.358;2023-02-03T08:18:25;101869.69;;;6.48;74.24
64967;BME280;51710;38.732;-121.358;2023-02-03T08:20:52;101869.97;;;6.44;74.23
64967;BME280;51710;38.732;-121.358;2023-02-03T08:23:18;101871.31;;;6.37;73.88
64967;BME280;51710;38.732;-121.358;2023-02-03T08:25:50;101862.19;;;6.28;74.06
64967;BME280;51710;38.732;-121.358;2023-02-03T08:28:17;101860.91;;;6.21;74.28
64967;BME280;51710;38.732;-121.358;2023-02-03T08:30:43;101864.69;;;6.17;74.06
64967;BME280;51710;38.732;-121.358;2023-02-03T08:33:09;101865.56;;;6.18;74.62
64967;BME280;51710;38.732;-121.358;2023-02-03T08:35:36;101862.81;;;6.19;74.94
64967;BME280;51710;38.732;-121.358;2023-02-03T08:38:03;101858.47;;;6.18;74.80
64967;BME280;51710;38.732;-121.358;2023-02-03T08:40:30;101853.19;;;6.18;74.60
64967;BME280;51710;38.732;-121.358;2023-02-03T08:42:56;101860.91;;;6.21;74.88
64967;BME280;51710;38.732;-121.358;2023-02-03T08:45:23;101859.78;;;6.25;75.24
64967;BME280;51710;38.732;-121.358;2023-02-03T08:47:49;101848.88;;;6.30;74.83
64967;BME280;51710;38.732;-121.358;2023-02-03T08:50:15;101856.31;;;6.37;75.43
64967;BME280;51710;38.732;-121.358;2023-02-03T08:52:42;101855.69;;;6.46;75.47
64967;BME280;51710;38.732;-121.358;2023-02-03T08:55:08;101849.78;;;6.55;75.24
64967;BME280;51710;38.732;-121.358;2023-02-03T08:57:35;101851.06;;;6.62;75.16
64967;BME280;51710;38.732;-121.358;2023-02-03T09:00:04;101854.03;;;6.70;75.64
64967;BME280;51710;38.732;-121.358;2023-02-03T09:02:31;101857.00;;;6.78;75.62
64967;BME280;51710;38.732;-121.358;2023-02-03T09:04:57;101848.41;;;6.88;75.25
64967;BME280;51710;38.732;-121.358;2023-02-03T09:07:24;101850.66;;;6.94;74.81
64967;BME280;51710;38.732;-121.358;2023-02-03T09:09:50;101847.47;;;7.01;75.06
64967;BME280;51710;38.732;-121.358;2023-02-03T09:12:17;101833.06;;;7.05;74.76
64967;BME280;51710;38.732;-121.358;2023-02-03T09:14:43;101828.41;;;7.09;75.01
64967;BME280;51710;38.732;-121.358;2023-02-03T09:17:10;101834.31;;;7.12;74.94
64967;BME280;51710;38.732;-121.358;2023-02-03T09:19:36;101839.28;;;7.17;74.77
64967;BME280;51710;38.732;-121.358;2023-02-03T09:22:04;101822.22;;;7.21;74.47
64967;BME280;51710;38.732;-121.358;2023-02-03T09:24:30;101812.03;;;7.27;74.59
64967;BME280;51710;38.732;-121.358;2023-02-03T09:26:57;101833.44;;;7.37;74.50
64967;BME280;51710;38.732;-121.358;2023-02-03T09:29:25;101821.34;;;7.45;74.73
64967;BME280;51710;38.732;-121.358;2023-02-03T09:31:52;101826.84;;;7.55;74.82
64967;BME280;51710;38.732;-121.358;2023-02-03T09:34:19;101821.56;;;7.66;74.22
64967;BME280;51710;38.732;-121.358;2023-02-03T09:36:46;101829.72;;;7.75;74.35
64967;BME280;51710;38.732;-121.358;2023-02-03T09:39:13;101825.56;;;7.84;73.97
64967;BME280;51710;38.732;-121.358;2023-02-03T09:45:06;101804.53;;;8.05;74.04
64967;BME280;51710;38.732;-121.358;2023-02-03T09:47:40;101822.31;;;8.15;73.93
64967;BME280;51710;38.732;-121.358;2023-02-03T09:50:28;101819.91;;;8.23;73.75
64967;BME280;51710;38.732;-121.358;2023-02-03T09:52:55;101828.41;;;8.28;73.61
64967;BME280;51710;38.732;-121.358;2023-02-03T09:55:27;101826.50;;;8.30;73.32
64967;BME280;51710;38.732;-121.358;2023-02-03T09:58:12;101814.81;;;8.33;73.30
64967;BME280;51710;38.732;-121.358;2023-02-03T10:09:00;101813.50;;;8.38;73.08
64967;BME280;51710;38.732;-121.358;2023-02-03T10:11:44;101790.34;;;8.40;72.68
64967;BME280;51710;38.732;-121.358;2023-02-03T10:14:39;101787.59;;;8.42;72.45
64967;BME280;51710;38.732;-121.358;2023-02-03T10:20:03;101795.41;;;8.43;72.44
64967;BME280;51710;38.732;-121.358;2023-02-03T10:22:36;101795.19;;;8.46;71.82
64967;BME280;51710;38.732;-121.358;2023-02-03T10:25:18;101790.72;;;8.47;72.03
64967;BME280;51710;38.732;-121.358;2023-02-03T10:27:52;101790.59;;;8.48;72.11
64967;BME280;51710;38.732;-121.358;2023-02-03T10:30:25;101785.19;;;8.50;71.72
64967;BME280;51710;38.732;-121.358;2023-02-03T10:33:25;101789.16;;;8.55;71.62
64967;BME280;51710;38.732;-121.358;2023-02-03T10:36:22;101792.31;;;8.60;71.21
64967;BME280;51710;38.732;-121.358;2023-02-03T10:39:14;101780.50;;;8.64;70.98
64967;BME280;51710;38.732;-121.358;2023-02-03T10:41:42;101772.28;;;8.67;70.72
64967;BME280;51710;38.732;-121.358;2023-02-03T10:44:12;101777.34;;;8.70;70.37
64967;BME280;51710;38.732;-121.358;2023-02-03T10:46:40;101784.13;;;8.74;70.52
64967;BME280;51710;38.732;-121.358;2023-02-03T10:49:09;101783.63;;;8.80;70.03
64967;BME280;51710;38.732;-121.358;2023-02-03T10:51:40;101778.72;;;8.87;69.89
64967;BME280;51710;38.732;-121.358;2023-02-03T10:54:30;101775.44;;;8.94;69.35
64967;BME280;51710;38.732;-121.358;2023-02-03T10:57:10;101774.97;;;9.00;69.28
64967;BME280;51710;38.732;-121.358;2023-02-03T10:59:41;101750.66;;;9.05;68.42
64967;BME280;51710;38.732;-121.358;2023-02-03T11:02:28;101751.16;;;9.10;68.29
64967;BME280;51710;38.732;-121.358;2023-02-03T11:07:44;101746.94;;;9.19;67.32
64967;BME280;51710;38.732;-121.358;2023-02-03T11:13:19;101750.53;;;9.29;66.70
64967;BME280;51710;38.732;-121.358;2023-02-03T11:16:12;101758.00;;;9.35;66.13
64967;BME280;51710;38.732;-121.358;2023-02-03T11:21:29;101749.63;;;9.50;65.46
64967;BME280;51710;38.732;-121.358;2023-02-03T11:24:17;101745.63;;;9.56;64.43
64967;BME280;51710;38.732;-121.358;2023-02-03T11:27:11;101749.25;;;9.66;64.68
64967;BME280;51710;38.732;-121.358;2023-02-03T11:29:47;101728.44;;;9.71;63.96
64967;BME280;51710;38.732;-121.358;2023-02-03T11:32:32;101718.97;;;9.78;64.07
64967;BME280;51710;38.732;-121.358;2023-02-03T11:37:45;101746.97;;;9.82;63.42
64967;BME280;51710;38.732;-121.358;2023-02-03T11:45:28;101721.94;;;9.64;62.95
64967;BME280;51710;38.732;-121.358;2023-02-03T11:53:16;101697.16;;;9.84;61.91
64967;BME280;51710;38.732;-121.358;2023-02-03T12:07:14;101699.63;;;10.58;58.88
64967;BME280;51710;38.732;-121.358;2023-02-03T12:15:54;101689.94;;;10.97;57.13
64967;BME280;51710;38.732;-121.358;2023-02-03T12:18:31;101702.31;;;11.07;57.30
64967;BME280;51710;38.732;-121.358;2023-02-03T12:21:37;101694.22;;;11.18;56.00
64967;BME280;51710;38.732;-121.358;2023-02-03T12:29:05;101676.28;;;11.40;55.08
64967;BME280;51710;38.732;-121.358;2023-02-03T12:34:46;101697.63;;;11.59;54.43
64967;BME280;51710;38.732;-121.358;2023-02-03T12:42:45;101697.09;;;11.84;53.75
64967;BME280;51710;38.732;-121.358;2023-02-03T12:45:23;101705.25;;;11.92;53.44
64967;BME280;51710;38.732;-121.358;2023-02-03T12:48:06;101705.97;;;11.94;53.58
64967;BME280;51710;38.732;-121.358;2023-02-03T12:51:01;101704.69;;;11.79;54.70
64967;BME280;51710;38.732;-121.358;2023-02-03T12:53:35;101699.19;;;11.52;55.18
64967;BME280;51710;38.732;-121.358;2023-02-03T12:56:09;101691.16;;;11.32;55.84
64967;BME280;51710;38.732;-121.358;2023-02-03T12:59:01;101686.66;;;11.23;56.35
64967;BME280;51710;38.732;-121.358;2023-02-03T13:04:11;101684.41;;;11.28;55.91
64967;BME280;51710;38.732;-121.358;2023-02-03T13:12:46;101713.81;;;11.67;54.18
64967;BME280;51710;38.732;-121.358;2023-02-03T13:17:52;101724.84;;;11.53;52.92
64967;BME280;51710;38.732;-121.358;2023-02-03T13:20:23;101734.97;;;11.40;53.49
64967;BME280;51710;38.732;-121.358;2023-02-03T13:22:51;101743.56;;;11.03;55.12
64967;BME280;51710;38.732;-121.358;2023-02-03T13:28:03;101737.88;;;10.57;57.32
64967;BME280;51710;38.732;-121.358;2023-02-03T13:33:41;101733.78;;;10.53;57.80
64967;BME280;51710;38.732;-121.358;2023-02-03T13:41:38;101791.66;;;9.99;60.72
64967;BME280;51710;38.732;-121.358;2023-02-03T13:44:11;101810.00;;;9.81;62.39
64967;BME280;51710;38.732;-121.358;2023-02-03T13:46:39;101837.22;;;9.63;63.12
64967;BME280;51710;38.732;-121.358;2023-02-03T13:49:07;101852.50;;;9.50;64.79
64967;BME280;51710;38.732;-121.358;2023-02-03T13:51:37;101875.69;;;9.37;66.35
64967;BME280;51710;38.732;-121.358;2023-02-03T13:54:22;101888.25;;;9.24;67.87
64967;BME280;51710;38.732;-121.358;2023-02-03T13:56:59;101897.06;;;9.13;69.24
64967;BME280;51710;38.732;-121.358;2023-02-03T14:04:59;101951.75;;;9.04;72.00
64967;BME280;51710;38.732;-121.358;2023-02-03T14:07:33;101959.00;;;9.02;72.32
64967;BME280;51710;38.732;-121.358;2023-02-03T14:12:54;101949.69;;;8.97;73.92
64967;BME280;51710;38.732;-121.358;2023-02-03T14:17:53;101961.78;;;9.01;74.99
64967;BME280;51710;38.732;-121.358;2023-02-03T14:23:19;101991.56;;;8.93;75.44
64967;BME280;51710;38.732;-121.358;2023-02-03T14:25:50;101983.09;;;8.88;76.04
64967;BME280;51710;38.732;-121.358;2023-02-03T14:28:30;102003.72;;;8.85;76.56
64967;BME280;51710;38.732;-121.358;2023-02-03T14:31:12;102014.69;;;8.80;76.89
64967;BME280;51710;38.732;-121.358;2023-02-03T14:36:26;102038.53;;;8.93;76.83
64967;BME280;51710;38.732;-121.358;2023-02-03T14:38:59;102007.75;;;8.90;77.69
64967;BME280;51710;38.732;-121.358;2023-02-03T14:53:46;102065.09;;;8.93;78.36
64967;BME280;51710;38.732;-121.358;2023-02-03T14:59:49;102053.84;;;8.89;79.20
64967;BME280;51710;38.732;-121.358;2023-02-03T15:02:21;102053.03;;;8.89;79.43
64967;BME280;51710;38.732;-121.358;2023-02-03T15:07:42;102042.53;;;8.98;79.96
64967;BME280;51710;38.732;-121.358;2023-02-03T15:10:20;102041.94;;;8.95;80.35
64967;BME280;51710;38.732;-121.358;2023-02-03T15:12:49;102040.25;;;8.94;80.68
64967;BME280;51710;38.732;-121.358;2023-02-03T15:17:51;102043.00;;;8.92;80.80
64967;BME280;51710;38.732;-121.358;2023-02-03T15:20:36;102046.22;;;8.85;80.95